1868 NOT_NAMED (1868032S17441)


IBTrACS version v04r00. Visit IBTrACS website for data access.
Please direct all questions to the IBTrACS Q and A forum

Storm track - Intensity - Wind Radii - Intensity Data - Source Data - All data

Summary Information

Storm ID 1868032S17441
Start Jan 31 18Z
End Feb 7 06Z
ATCF IDs
Track status Best track data.

Storm track plot

Map of storm track

Intensity plots

No Intensity information for this storm


Radial wind information

No radial wind information for this storm


Position and Intensity Table

BASIN ISO_TIME_________ NATURE LAT LON
degrees north degrees east
SI 1868-01-31 18:00:00 NR -17.40 80.50
SI 21:00:00 NR -17.63 80.08
SI 1868-02-01 00:00:00 NR -17.85 79.66
SI 03:00:00 NR -18.08 79.23
SI 06:00:00 NR -18.30 78.80
SI 09:00:00 NR -18.52 78.36
SI 12:00:00 NR -18.74 77.91
SI 15:00:00 NR -18.97 77.45
SI 18:00:00 NR -19.20 77.00
SI 21:00:00 NR -19.43 76.58
SI 1868-02-02 00:00:00 NR -19.66 76.16
SI 03:00:00 NR -19.92 75.71
SI 06:00:00 NR -20.20 75.20
SI 09:00:00 NR -20.52 74.60
SI 12:00:00 NR -20.87 73.95
SI 15:00:00 NR -21.23 73.27
SI 18:00:00 NR -21.60 72.60
SI 21:00:00 NR -21.94 71.99
SI 1868-02-03 00:00:00 NR -22.29 71.39
SI 03:00:00 NR -22.64 70.80
SI 06:00:00 NR -23.00 70.20
SI 09:00:00 NR -23.37 69.57
SI 12:00:00 NR -23.75 68.93
SI 15:00:00 NR -24.13 68.30
SI 18:00:00 NR -24.50 67.70
SI 21:00:00 NR -24.89 67.10
SI 1868-02-04 00:00:00 NR -25.27 66.54
SI 03:00:00 NR -25.61 66.03
SI 06:00:00 NR -25.90 65.60
SI 09:00:00 NR -26.10 65.28
SI 12:00:00 NR -26.24 65.04
SI 15:00:00 NR -26.37 64.83
SI 18:00:00 NR -26.50 64.60
SI 21:00:00 NR -26.68 64.30
SI 1868-02-05 00:00:00 NR -26.87 63.97
SI 03:00:00 NR -27.08 63.64
SI 06:00:00 NR -27.30 63.30
SI 09:00:00 NR -27.54 62.98
SI 12:00:00 NR -27.78 62.66
SI 15:00:00 NR -28.04 62.33
SI 18:00:00 NR -28.30 62.00
SI 21:00:00 NR -28.52 61.68
SI 1868-02-06 00:00:00 NR -28.75 61.36
SI 03:00:00 NR -29.00 61.00
SI 06:00:00 NR -29.30 60.60
SI 09:00:00 NR -29.68 60.12
SI 12:00:00 NR -30.11 59.59
SI 15:00:00 NR -30.56 59.04
SI 18:00:00 NR -31.00 58.50
SI 21:00:00 NR -31.41 57.99
SI 1868-02-07 00:00:00 NR -31.79 57.51
SI 03:00:00 NR -32.15 57.05
SI 06:00:00 NR -32.50 56.60

Source Information

Agency Information
USA
TOKYO
CMA
HKO
NEWDELHI
REUNION
BOM
NADI
WELLINGTON
DS824
TD9636 cons_worldwide_trop_cyclone_18710101-19891231-005:Line=986
TD9635
NEUMANN
MLC

All available IBTrACS Data

SEASON BASIN SUBBASIN ISO_TIME_________ NATURE LAT LON DIST2LAND LANDFALL IFLAG USA SSHS TD9636 LAT TD9636 LON TD9636 STAGE STORM SPEED STORM DIR
Year degrees north degrees east km km 1 degrees north degrees east kts degrees
1868 SI MM 1868-01-31 18:00:00 NR -17.40 80.50 2408 2362 __________O___ -1 -17.40 80.50 7 9 240
1868 SI MM 21:00:00 NR -17.63 80.08 2362 2317 __________P___ -1 -17.63 80.08 7 9 240
1868 SI MM 1868-02-01 00:00:00 NR -17.85 79.66 2315 2269 __________P___ -1 -17.85 79.66 7 9 241
1868 SI MM 03:00:00 NR -18.08 79.23 2259 2213 __________P___ -1 -18.08 79.23 7 9 241
1868 SI MM 06:00:00 NR -18.30 78.80 2213 2168 __________O___ -1 -18.30 78.80 7 9 242
1868 SI MM 09:00:00 NR -18.52 78.36 2168 2113 __________P___ -1 -18.52 78.36 7 10 242
1868 SI MM 12:00:00 NR -18.74 77.91 2113 2066 __________P___ -1 -18.74 77.91 7 10 242
1868 SI MM 15:00:00 NR -18.97 77.45 2066 2011 __________P___ -1 -18.97 77.45 7 10 242
1868 SI MM 18:00:00 NR -19.20 77.00 2011 1967 __________O___ -1 -19.20 77.00 7 9 241
1868 SI MM 21:00:00 NR -19.43 76.58 1967 1923 __________P___ -1 -19.43 76.58 7 9 240
1868 SI MM 1868-02-02 00:00:00 NR -19.66 76.16 1922 1868 __________P___ -1 -19.66 76.16 7 10 239
1868 SI MM 03:00:00 NR -19.92 75.71 1868 1814 __________P___ -1 -19.92 75.71 7 11 239
1868 SI MM 06:00:00 NR -20.20 75.20 1814 1750 __________O___ -1 -20.20 75.20 7 12 240
1868 SI MM 09:00:00 NR -20.52 74.60 1750 1686 __________P___ -1 -20.52 74.60 7 14 240
1868 SI MM 12:00:00 NR -20.87 73.95 1676 1613 __________P___ -1 -20.87 73.95 7 14 240
1868 SI MM 15:00:00 NR -21.23 73.27 1613 1542 __________P___ -1 -21.23 73.27 7 15 240
1868 SI MM 18:00:00 NR -21.60 72.60 1542 1483 __________O___ -1 -21.60 72.60 7 14 239
1868 SI MM 21:00:00 NR -21.94 71.99 1483 1425 __________P___ -1 -21.94 71.99 7 13 238
1868 SI MM 1868-02-03 00:00:00 NR -22.29 71.39 1425 1368 __________P___ -1 -22.29 71.39 7 13 238
1868 SI MM 03:00:00 NR -22.64 70.80 1368 1315 __________P___ -1 -22.64 70.80 7 13 237
1868 SI MM 06:00:00 NR -23.00 70.20 1315 1262 __________O___ -1 -23.00 70.20 7 14 237
1868 SI MM 09:00:00 NR -23.37 69.57 1265 1214 __________P___ -1 -23.37 69.57 7 14 237
1868 SI MM 12:00:00 NR -23.75 68.93 1205 1160 __________P___ -1 -23.75 68.93 7 14 237
1868 SI MM 15:00:00 NR -24.13 68.30 1160 1119 __________P___ -1 -24.13 68.30 7 14 236
1868 SI MM 18:00:00 NR -24.50 67.70 1119 1081 __________O___ -1 -24.50 67.70 7 13 235
1868 SI MM 21:00:00 NR -24.89 67.10 1081 1051 __________P___ -1 -24.89 67.10 7 13 234
1868 SI MM 1868-02-04 00:00:00 NR -25.27 66.54 1048 1024 __________P___ -1 -25.27 66.54 7 12 233
1868 SI MM 03:00:00 NR -25.61 66.03 1022 1007 __________P___ -1 -25.61 66.03 7 11 233
1868 SI MM 06:00:00 NR -25.90 65.60 1007 996 __________O___ -1 -25.90 65.60 7 8 234
1868 SI MM 09:00:00 NR -26.10 65.28 996 979 __________P___ -1 -26.10 65.28 7 6 236
1868 SI MM 12:00:00 NR -26.24 65.04 979 978 __________P___ -1 -26.24 65.04 7 5 237
1868 SI MM 15:00:00 NR -26.37 64.83 978 971 __________P___ -1 -26.37 64.83 7 5 237
1868 SI MM 18:00:00 NR -26.50 64.60 971 963 __________O___ -1 -26.50 64.60 7 6 237
1868 SI MM 21:00:00 NR -26.68 64.30 964 952 __________P___ -1 -26.68 64.30 7 7 237
1868 SI MM 1868-02-05 00:00:00 NR -26.87 63.97 960 946 __________P___ -1 -26.87 63.97 7 7 236
1868 SI MM 03:00:00 NR -27.08 63.64 950 944 __________P___ -1 -27.08 63.64 7 7 234
1868 SI MM 06:00:00 NR -27.30 63.30 949 942 __________O___ -1 -27.30 63.30 7 7 232
1868 SI MM 09:00:00 NR -27.54 62.98 949 947 __________P___ -1 -27.54 62.98 7 7 230
1868 SI MM 12:00:00 NR -27.78 62.66 960 954 __________P___ -1 -27.78 62.66 7 8 229
1868 SI MM 15:00:00 NR -28.04 62.33 958 958 __________P___ -1 -28.04 62.33 7 8 228
1868 SI MM 18:00:00 NR -28.30 62.00 973 969 __________O___ -1 -28.30 62.00 7 7 230
1868 SI MM 21:00:00 NR -28.52 61.68 980 976 __________P___ -1 -28.52 61.68 7 7 232
1868 SI MM 1868-02-06 00:00:00 NR -28.75 61.36 989 989 __________P___ -1 -28.75 61.36 7 8 231
1868 SI MM 03:00:00 NR -29.00 61.00 1006 1001 __________P___ -1 -29.00 61.00 7 9 230
1868 SI MM 06:00:00 NR -29.30 60.60 1015 1015 __________O___ -1 -29.30 60.60 7 10 228
1868 SI MM 09:00:00 NR -29.68 60.12 1030 1030 __________P___ -1 -29.68 60.12 7 12 227
1868 SI MM 12:00:00 NR -30.11 59.59 1050 1050 __________P___ -1 -30.11 59.59 7 13 227
1868 SI MM 15:00:00 NR -30.56 59.04 1082 1079 __________P___ -1 -30.56 59.04 7 13 227
1868 SI MM 18:00:00 NR -31.00 58.50 1110 1107 __________O___ -1 -31.00 58.50 7 12 227
1868 SI MM 21:00:00 NR -31.41 57.99 1142 1142 __________P___ -1 -31.41 57.99 7 12 227
1868 SI MM 1868-02-07 00:00:00 NR -31.79 57.51 1176 1175 __________P___ -1 -31.79 57.51 7 11 227
1868 SI MM 03:00:00 NR -32.15 57.05 1204 1204 __________P___ -1 -32.15 57.05 7 11 227
1868 SI MM 06:00:00 NR -32.50 56.60 1243 __________O___ -1 -32.50 56.60 7 10 227